Terminal Aerodrome Forecast
Issued by NWS Twin Cities, MN

Home | Current Version | Previous Version | Text Only | Print | Product List | Glossary Off
Versions: 1 2 3 4 5 6 7 8 9 10 11 12 13 14 15 16 17 18

000
FTUS43 KMPX 230328 AAB
TAFSTC
TAF AMD
KSTC 230328Z 2303/2324 29005KT 4SM BR OVC005
     FM230600 29004KT 2SM BR OVC003
     FM231400 30004KT 4SM BR OVC008
     FM231700 27005KT 6SM BR OVC015=

USA.gov is the U.S. government's official web portal to all federal, state and local government web resources and services.